createdAt,value
2019-04-05T00:00:08.610Z,156.63
2019-04-05T00:02:38.353Z,151.35
2019-04-05T00:05:07.909Z,158.03
2019-04-05T00:07:37.491Z,156.95
2019-04-05T00:10:07.482Z,148.65
2019-04-05T00:12:36.977Z,158.87
2019-04-05T00:15:15.312Z,141.47
2019-04-05T00:17:38.862Z,158.90
2019-04-05T00:20:08.589Z,155.93
2019-04-05T00:22:37.906Z,166.25
2019-04-05T00:25:08.392Z,155.40
2019-04-05T00:27:37.759Z,162.20
2019-04-05T00:30:11.024Z,193.32
2019-04-05T00:32:40.402Z,164.97
2019-04-05T00:35:10.036Z,166.18
2019-04-05T00:37:39.344Z,158.00
2019-04-05T00:40:10.483Z,155.43
2019-04-05T00:42:39.805Z,165.43
2019-04-05T00:45:09.846Z,172.07
2019-04-05T00:47:39.229Z,161.03
2019-04-05T00:50:08.941Z,161.20
2019-04-05T00:52:38.368Z,164.22
2019-04-05T00:55:07.998Z,175.85
2019-04-05T00:57:37.372Z,161.88
2019-04-05T01:00:07.388Z,174.90
2019-04-05T01:02:36.840Z,196.18
2019-04-05T01:05:07.310Z,167.80
2019-04-05T01:07:36.757Z,167.95
2019-04-05T01:10:07.477Z,175.22
2019-04-05T01:12:37.298Z,168.02
2019-04-05T01:15:08.129Z,179.05
2019-04-05T01:17:37.967Z,177.75
2019-04-05T01:20:08.061Z,173.80
2019-04-05T01:22:38.696Z,188.42
2019-04-05T01:25:09.228Z,172.78
2019-04-05T01:27:40.528Z,170.80
2019-04-05T01:30:14.583Z,174.95
2019-04-05T01:32:43.852Z,193.07
2019-04-05T01:35:14.493Z,194.50
2019-04-05T01:37:44.040Z,211.60
2019-04-05T01:40:14.620Z,211.77
2019-04-05T01:42:44.014Z,188.30
2019-04-05T01:45:13.620Z,214.30
2019-04-05T01:47:43.000Z,216.88
2019-04-05T01:50:12.700Z,225.10
2019-04-05T01:52:43.019Z,196.25
2019-04-05T01:55:12.371Z,185.82
2019-04-05T01:57:41.860Z,230.55
2019-04-05T02:00:12.352Z,244.22
2019-04-05T02:02:42.272Z,248.22
2019-04-05T02:05:13.935Z,277.68
2019-04-05T02:07:43.330Z,270.42
2019-04-05T02:10:13.470Z,236.97
2019-04-05T02:12:42.827Z,261.23
2019-04-05T02:15:26.453Z,257.83
2019-04-05T02:17:56.178Z,271.82
2019-04-05T02:20:25.841Z,261.92
2019-04-05T02:22:55.260Z,277.90
2019-04-05T02:25:24.642Z,226.40
2019-04-05T02:27:54.725Z,273.73
2019-04-05T02:30:24.157Z,269.55
2019-04-05T02:32:53.876Z,304.60
2019-04-05T02:35:23.553Z,262.55
2019-04-05T02:37:53.001Z,262.65
2019-04-05T02:40:23.997Z,303.73
2019-04-05T02:42:54.228Z,256.38
2019-04-05T02:45:23.825Z,287.90
2019-04-05T02:47:55.466Z,293.70
2019-04-05T02:50:26.291Z,335.90
2019-04-05T02:52:58.656Z,299.07
2019-04-05T02:55:30.209Z,355.95
2019-04-05T02:58:01.018Z,352.52
2019-04-05T03:00:32.117Z,305.30
2019-04-05T03:03:02.751Z,336.73
2019-04-05T03:05:32.332Z,277.85
2019-04-05T03:08:01.736Z,352.48
2019-04-05T03:10:52.845Z,347.85
2019-04-05T03:13:26.550Z,398.68
2019-04-05T03:15:58.437Z,400.38
2019-04-05T03:18:29.342Z,365.50
2019-04-05T03:21:01.789Z,332.73
2019-04-05T03:23:32.026Z,344.55
2019-04-05T03:26:04.175Z,396.25
2019-04-05T03:28:35.858Z,472.85
2019-04-05T03:31:05.299Z,404.80
2019-04-05T03:33:34.957Z,386.05
2019-04-05T03:36:05.692Z,360.65
2019-04-05T03:38:35.099Z,418.40
2019-04-05T03:41:04.806Z,389.72
2019-04-05T03:43:34.844Z,453.90
2019-04-05T03:46:04.793Z,503.18
2019-04-05T03:48:34.246Z,514.32
2019-04-05T03:51:03.813Z,512.35
2019-04-05T03:53:33.190Z,424.35
2019-04-05T03:56:03.245Z,422.48
2019-04-05T03:58:32.781Z,489.67
2019-04-05T04:01:03.007Z,412.08
2019-04-05T04:03:32.710Z,453.68
2019-04-05T04:06:02.315Z,377.32
2019-04-05T04:08:31.598Z,407.38
2019-04-05T04:11:01.455Z,389.23
2019-04-05T04:13:30.825Z,452.62
2019-04-05T04:16:00.319Z,426.63
2019-04-05T04:18:31.019Z,452.35
2019-04-05T04:21:03.208Z,489.07
2019-04-05T04:23:32.723Z,468.95
2019-04-05T04:26:02.992Z,459.15
2019-04-05T04:28:32.623Z,454.57
2019-04-05T04:31:03.405Z,403.15
2019-04-05T04:33:33.069Z,435.07
2019-04-05T04:36:02.868Z,411.68
2019-04-05T04:38:32.195Z,407.80
2019-04-05T04:41:01.648Z,403.85
2019-04-05T04:43:31.000Z,395.33
2019-04-05T04:46:00.754Z,401.82
2019-04-05T04:48:30.404Z,335.02
2019-04-05T04:51:00.085Z,446.85
2019-04-05T04:53:29.597Z,447.33
2019-04-05T04:55:59.424Z,460.05
2019-04-05T04:58:28.793Z,449.80
2019-04-05T05:00:58.243Z,433.27
2019-04-05T05:03:27.801Z,470.95
2019-04-05T05:05:57.177Z,451.05
2019-04-05T05:08:26.530Z,444.17
2019-04-05T05:10:55.922Z,399.25
2019-04-05T05:13:26.990Z,397.02
2019-04-05T05:15:56.381Z,421.15
2019-04-05T05:18:25.722Z,467.72
2019-04-05T05:20:55.300Z,354.82
2019-04-05T05:23:24.861Z,369.23
2019-04-05T05:25:54.160Z,346.60
2019-04-05T05:28:23.817Z,346.65
2019-04-05T05:30:53.132Z,333.80
2019-04-05T05:33:22.694Z,303.98
2019-04-05T05:35:52.086Z,284.62
2019-04-05T05:38:22.507Z,253.42
2019-04-05T05:40:51.808Z,234.32
2019-04-05T05:43:23.723Z,209.98
2019-04-05T05:45:52.284Z,174.90
2019-04-05T05:48:21.858Z,154.07
2019-04-05T05:50:51.244Z,137.85
2019-04-05T05:53:20.717Z,124.35
2019-04-05T05:55:50.166Z,108.57
2019-04-05T05:58:19.676Z,101.80
2019-04-05T06:00:50.496Z,92.10
2019-04-05T06:03:19.786Z,89.80
2019-04-05T06:05:49.243Z,85.47
2019-04-05T06:08:19.124Z,80.15
2019-04-05T06:10:48.424Z,76.80
2019-04-05T06:13:17.749Z,77.40
2019-04-05T06:15:47.095Z,70.65
2019-04-05T06:18:16.490Z,70.50
2019-04-05T06:20:46.180Z,78.55
2019-04-05T06:23:15.478Z,82.97
2019-04-05T06:25:45.484Z,79.27
2019-04-05T06:28:14.779Z,83.87
2019-04-05T06:30:44.045Z,81.65
2019-04-05T06:33:13.355Z,82.00
2019-04-05T06:35:42.661Z,82.53
2019-04-05T06:38:12.269Z,84.32
2019-04-05T06:40:43.116Z,80.12
2019-04-05T06:43:12.592Z,73.20
2019-04-05T06:45:41.892Z,74.72
2019-04-05T06:48:19.154Z,69.67
2019-04-05T06:50:42.444Z,77.55
2019-04-05T06:53:11.738Z,64.70
2019-04-05T06:55:41.071Z,69.77
2019-04-05T06:58:10.675Z,66.12
2019-04-05T07:00:40.123Z,64.82
2019-04-05T07:03:09.441Z,64.90
2019-04-05T07:05:38.792Z,62.38
2019-04-05T07:08:08.107Z,61.63
2019-04-05T07:10:38.163Z,60.55
2019-04-05T07:13:07.627Z,59.85
2019-04-05T07:15:38.577Z,62.03
2019-04-05T07:18:07.954Z,55.52
2019-04-05T07:20:37.231Z,55.90
2019-04-05T07:23:06.591Z,59.88
2019-04-05T07:25:35.934Z,55.20
2019-04-05T07:28:05.373Z,52.17
2019-04-05T07:30:34.721Z,56.37
2019-04-05T07:33:04.142Z,50.70
2019-04-05T07:35:34.174Z,47.27
2019-04-05T07:38:03.586Z,46.08
2019-04-05T07:40:32.959Z,45.92
2019-04-05T07:43:02.412Z,43.52
2019-04-05T07:45:31.860Z,46.50
2019-04-05T07:48:01.142Z,41.35
2019-04-05T07:50:30.531Z,44.53
2019-04-05T07:52:59.818Z,44.55
2019-04-05T07:55:29.207Z,45.35
2019-04-05T07:57:58.500Z,43.33
2019-04-05T08:00:46.332Z,46.42
2019-04-05T08:03:15.937Z,41.88
2019-04-05T08:05:45.596Z,43.25
2019-04-05T08:08:23.668Z,39.40
2019-04-05T08:10:53.048Z,43.05
2019-04-05T08:13:22.993Z,39.33
2019-04-05T08:15:52.373Z,41.20
2019-04-05T08:18:22.735Z,43.38
2019-04-05T08:20:52.060Z,38.65
2019-04-05T08:23:21.404Z,41.20
2019-04-05T08:25:50.831Z,42.27
2019-04-05T08:28:20.107Z,41.10
2019-04-05T08:30:49.416Z,42.78
2019-04-05T08:33:18.712Z,42.20
2019-04-05T08:35:48.008Z,41.53
2019-04-05T08:38:17.427Z,43.80
2019-04-05T08:40:47.069Z,44.85
2019-04-05T08:43:16.505Z,44.70
2019-04-05T08:45:46.105Z,42.53
2019-04-05T08:48:15.411Z,43.55
2019-04-05T08:50:45.045Z,42.20
2019-04-05T08:53:14.458Z,33.58
2019-04-05T08:55:43.761Z,35.38
2019-04-05T08:58:13.094Z,33.58
2019-04-05T09:00:42.378Z,28.73
2019-04-05T09:03:12.143Z,28.32
2019-04-05T09:05:41.634Z,29.32
2019-04-05T09:08:10.945Z,26.40
2019-04-05T09:10:40.216Z,24.70
2019-04-05T09:13:09.616Z,28.42
2019-04-05T09:15:39.082Z,26.42
2019-04-05T09:18:08.397Z,26.62
2019-04-05T09:20:37.764Z,22.45
2019-04-05T09:23:08.665Z,20.17
2019-04-05T09:25:37.958Z,23.25
2019-04-05T09:28:08.496Z,21.33
2019-04-05T09:30:40.522Z,21.90
2019-04-05T09:33:09.845Z,22.65
2019-04-05T09:35:39.140Z,23.92
2019-04-05T09:38:08.464Z,22.05
2019-04-05T09:40:37.791Z,18.12
2019-04-05T09:43:07.126Z,18.23
2019-04-05T09:45:36.498Z,13.88
2019-04-05T09:48:06.051Z,12.07
2019-04-05T09:50:35.329Z,13.80
2019-04-05T09:53:04.777Z,12.00
2019-04-05T09:55:34.427Z,13.62
2019-04-05T09:58:04.033Z,12.15
2019-04-05T10:00:33.408Z,11.43
2019-04-05T10:03:02.825Z,12.58
2019-04-05T10:05:32.147Z,11.73
2019-04-05T10:08:01.464Z,12.18
2019-04-05T10:10:31.081Z,15.93
2019-04-05T10:12:59.485Z,10.48
2019-04-05T10:15:28.598Z,11.57
2019-04-05T10:17:58.039Z,11.80
2019-04-05T10:20:27.484Z,10.35
2019-04-05T10:22:57.128Z,11.05
2019-04-05T10:25:28.292Z,9.58
2019-04-05T10:27:57.635Z,10.05
2019-04-05T10:30:26.938Z,8.78
2019-04-05T10:32:56.207Z,9.73
2019-04-05T10:35:25.509Z,9.30
2019-04-05T10:37:54.879Z,10.03
2019-04-05T10:40:24.202Z,8.53
2019-04-05T10:42:53.472Z,8.88
2019-04-05T10:45:23.198Z,9.55
2019-04-05T10:47:52.526Z,11.03
2019-04-05T10:50:21.985Z,9.48
2019-04-05T10:52:51.329Z,9.55
2019-04-05T10:55:20.638Z,9.43
2019-04-05T10:57:50.009Z,10.03
2019-04-05T11:00:20.957Z,10.72
2019-04-05T11:02:50.264Z,10.08
2019-04-05T11:05:19.688Z,10.55
2019-04-05T11:07:48.992Z,13.62
2019-04-05T11:10:18.370Z,12.23
2019-04-05T11:12:49.963Z,10.40
2019-04-05T11:15:20.730Z,12.53
2019-04-05T11:17:50.316Z,9.15
2019-04-05T11:20:21.959Z,9.53
2019-04-05T11:22:51.432Z,11.10
2019-04-05T11:25:21.268Z,10.75
2019-04-05T11:27:50.652Z,10.95
2019-04-05T11:30:39.704Z,9.43
2019-04-05T11:33:09.094Z,13.45
2019-04-05T11:35:38.520Z,11.70
2019-04-05T11:38:07.993Z,11.22
2019-04-05T11:40:37.704Z,10.25
2019-04-05T11:43:07.380Z,10.00
2019-04-05T11:45:37.026Z,10.00
2019-04-05T11:48:06.858Z,11.22
2019-04-05T11:50:36.175Z,9.88
2019-04-05T11:53:05.786Z,10.68
2019-04-05T11:55:35.253Z,10.95
2019-04-05T11:58:04.644Z,10.63
2019-04-05T12:00:41.380Z,11.45
2019-04-05T12:03:13.893Z,11.18
2019-04-05T12:05:43.196Z,12.33
2019-04-05T12:08:12.497Z,15.00
2019-04-05T12:10:41.815Z,11.40
2019-04-05T12:13:11.184Z,12.65
2019-04-05T12:15:40.641Z,13.15
2019-04-05T12:18:09.965Z,11.90
2019-04-05T12:20:49.182Z,12.80
2019-04-05T12:23:10.362Z,12.85
2019-04-05T12:25:39.729Z,13.35
2019-04-05T12:28:10.979Z,14.87
2019-04-05T12:30:45.788Z,16.27
2019-04-05T12:33:14.929Z,16.17
2019-04-05T12:35:44.555Z,14.73
2019-04-05T12:38:28.003Z,15.30
2019-04-05T12:40:46.487Z,16.10
2019-04-05T12:43:17.422Z,18.73
2019-04-05T12:45:46.720Z,17.75
2019-04-05T12:48:16.641Z,20.37
2019-04-05T12:50:46.082Z,16.07
2019-04-05T12:53:15.382Z,15.80
2019-04-05T12:55:44.682Z,18.05
2019-04-05T12:58:14.056Z,15.65
2019-04-05T13:00:43.416Z,17.45
2019-04-05T13:03:12.707Z,17.45
2019-04-05T13:05:42.105Z,17.85
2019-04-05T13:08:11.405Z,17.92
2019-04-05T13:10:41.005Z,17.15
2019-04-05T13:13:10.489Z,16.52
2019-04-05T13:15:40.300Z,15.65
2019-04-05T13:18:10.115Z,18.37
2019-04-05T13:20:39.586Z,16.27
2019-04-05T13:23:09.044Z,15.10
2019-04-05T13:25:38.831Z,17.05
2019-04-05T13:28:13.463Z,15.63
2019-04-05T13:30:40.733Z,17.95
2019-04-05T13:33:10.048Z,13.40
2019-04-05T13:35:39.327Z,15.95
2019-04-05T13:38:08.727Z,18.42
2019-04-05T13:40:39.091Z,16.57
2019-04-05T13:43:08.392Z,17.67
2019-04-05T13:45:37.747Z,15.98
2019-04-05T13:48:09.085Z,15.13
2019-04-05T13:50:41.727Z,17.25
2019-04-05T13:55:41.383Z,17.12
2019-04-05T13:58:11.865Z,17.32
2019-04-05T14:00:41.522Z,15.65
2019-04-05T14:03:10.825Z,18.35
2019-04-05T14:05:40.453Z,16.30
2019-04-05T14:08:10.855Z,16.45
2019-04-05T14:10:41.880Z,16.60
2019-04-05T14:13:11.310Z,17.25
2019-04-05T14:15:42.399Z,29.57
2019-04-05T14:18:15.245Z,18.07
2019-04-05T14:20:43.834Z,21.75
2019-04-05T14:23:13.190Z,18.37
2019-04-05T14:25:43.608Z,17.42
2019-04-05T14:28:12.933Z,18.73
2019-04-05T14:30:42.436Z,19.52
2019-04-05T14:33:11.881Z,18.42
2019-04-05T14:35:41.172Z,17.30
2019-04-05T14:38:11.824Z,18.62
2019-04-05T14:40:42.365Z,19.10
2019-04-05T14:43:12.828Z,18.67
2019-04-05T14:45:42.747Z,17.65
2019-04-05T14:48:13.179Z,18.27
2019-04-05T14:50:42.489Z,16.87
2019-04-05T14:53:11.801Z,19.60
2019-04-05T14:55:41.112Z,18.85
2019-04-05T14:58:10.888Z,18.77
2019-04-05T15:00:40.574Z,17.05
2019-04-05T15:03:09.958Z,18.48
2019-04-05T15:05:39.272Z,18.07
2019-04-05T15:08:08.610Z,16.65
2019-04-05T15:10:38.000Z,15.23
2019-04-05T15:13:07.380Z,19.73
2019-04-05T15:15:36.693Z,18.73
2019-04-05T15:18:06.146Z,17.15
2019-04-05T15:20:35.618Z,18.17
2019-04-05T15:23:09.453Z,16.90
2019-04-05T15:25:38.028Z,16.45
2019-04-05T15:28:07.309Z,17.45
2019-04-05T15:30:37.882Z,16.20
2019-04-05T15:33:07.300Z,16.20
2019-04-05T15:35:36.816Z,15.38
2019-04-05T15:38:06.264Z,14.63
2019-04-05T15:40:35.568Z,18.40
2019-04-05T15:43:05.245Z,12.75
2019-04-05T15:45:34.733Z,12.98
2019-04-05T15:48:04.084Z,13.88
2019-04-05T15:50:35.046Z,13.05
2019-04-05T15:53:04.616Z,14.93
2019-04-05T15:55:35.565Z,12.00
2019-04-05T15:58:04.998Z,12.35
2019-04-05T16:00:42.338Z,13.48
2019-04-05T16:03:12.348Z,12.70
2019-04-05T16:05:42.405Z,11.03
2019-04-05T16:08:11.915Z,9.18
2019-04-05T16:10:41.448Z,10.45
2019-04-05T16:13:10.974Z,10.70
2019-04-05T16:15:40.407Z,11.97
2019-04-05T16:18:09.754Z,12.10
2019-04-05T16:20:39.263Z,10.63
2019-04-05T16:23:08.610Z,9.65
2019-04-05T16:25:38.119Z,9.85
2019-04-05T16:28:07.528Z,10.10
2019-04-05T16:30:39.530Z,11.08
2019-04-05T16:33:08.503Z,9.35
2019-04-05T16:35:37.989Z,11.45
2019-04-05T16:38:07.274Z,11.05
2019-04-05T16:40:36.989Z,11.08
2019-04-05T16:43:06.502Z,12.40
2019-04-05T16:45:38.436Z,12.03
2019-04-05T16:48:07.843Z,11.43
2019-04-05T16:50:37.166Z,11.97
2019-04-05T16:53:07.518Z,11.88
2019-04-05T16:55:37.099Z,10.70
2019-04-05T16:58:06.488Z,13.00
2019-04-05T17:00:36.239Z,11.80
2019-04-05T17:03:07.174Z,11.00
2019-04-05T17:05:36.559Z,14.00
2019-04-05T17:08:06.348Z,13.28
2019-04-05T17:10:36.176Z,13.70
2019-04-05T17:13:08.630Z,13.40
2019-04-05T17:15:38.288Z,12.75
2019-04-05T17:18:09.393Z,14.10
2019-04-05T17:20:38.843Z,14.07
2019-04-05T17:23:08.517Z,14.98
2019-04-05T17:25:37.957Z,13.55
2019-04-05T17:28:07.356Z,16.73
2019-04-05T17:30:36.729Z,14.23
2019-04-05T17:33:06.245Z,14.07
2019-04-05T17:35:35.730Z,15.30
2019-04-05T17:38:05.164Z,14.15
2019-04-05T17:40:34.569Z,14.18
2019-04-05T17:43:04.011Z,15.48
2019-04-05T17:45:34.652Z,16.40
2019-04-05T17:48:04.234Z,15.05
2019-04-05T17:50:34.402Z,15.43
2019-04-05T17:53:12.830Z,15.40
2019-04-05T17:55:36.041Z,14.30
2019-04-05T17:58:06.485Z,14.70
2019-04-05T18:00:36.562Z,16.30
2019-04-05T18:03:06.067Z,15.15
2019-04-05T18:05:35.514Z,16.00
2019-04-05T18:08:05.109Z,14.90
2019-04-05T18:10:34.947Z,16.75
2019-04-05T18:13:04.393Z,16.15
2019-04-05T18:15:33.766Z,14.20
2019-04-05T18:18:03.181Z,14.83
2019-04-05T18:20:32.751Z,15.60
2019-04-05T18:23:03.717Z,15.60
2019-04-05T18:25:33.051Z,16.52
2019-04-05T18:28:02.373Z,17.25
2019-04-05T18:30:31.832Z,17.37
2019-04-05T18:33:01.225Z,18.10
2019-04-05T18:35:31.706Z,16.45
2019-04-05T18:38:01.081Z,17.60
2019-04-05T18:40:39.822Z,16.85
2019-04-05T18:43:01.409Z,17.42
2019-04-05T18:45:33.472Z,18.67
2019-04-05T18:48:01.768Z,17.55
2019-04-05T18:50:31.218Z,20.23
2019-04-05T18:53:00.620Z,21.27
2019-04-05T18:55:29.934Z,19.82
2019-04-05T18:58:00.040Z,19.95
2019-04-05T19:00:29.442Z,20.72
2019-04-05T19:02:58.949Z,21.02
2019-04-05T19:05:28.416Z,21.77
2019-04-05T19:07:57.854Z,22.25
2019-04-05T19:10:36.954Z,24.40
2019-04-05T19:12:59.507Z,22.25
2019-04-05T19:15:28.895Z,24.25
2019-04-05T19:17:58.282Z,23.18
2019-04-05T19:20:27.639Z,25.25
2019-04-05T19:22:57.005Z,24.25
2019-04-05T19:25:26.271Z,21.52
2019-04-05T19:27:55.646Z,24.57
2019-04-05T19:50:35.659Z,27.37
2019-04-05T19:53:05.042Z,29.85
2019-04-05T19:55:34.351Z,30.02
2019-04-05T19:58:03.695Z,28.65
2019-04-05T20:00:33.272Z,31.15
2019-04-05T20:03:02.789Z,31.27
2019-04-05T20:05:32.406Z,31.25
2019-04-05T20:08:02.164Z,33.53
2019-04-05T20:10:31.527Z,33.35
2019-04-05T20:13:00.844Z,31.00
2019-04-05T20:15:30.574Z,32.03
2019-04-05T20:18:00.252Z,32.50
2019-04-05T20:20:29.855Z,32.65
2019-04-05T20:23:01.107Z,32.30
2019-04-05T20:25:30.477Z,33.40
2019-04-05T20:27:59.848Z,33.20
2019-04-05T20:30:29.147Z,34.30
2019-04-05T20:32:59.431Z,34.38
2019-04-05T20:35:28.806Z,33.05
2019-04-05T20:37:58.082Z,35.45
2019-04-05T20:40:27.414Z,36.55
2019-04-05T20:42:56.937Z,32.13
2019-04-05T20:45:26.375Z,36.08
2019-04-05T20:47:55.670Z,35.48
2019-04-05T20:50:25.021Z,35.78
2019-04-05T20:52:54.313Z,35.88
2019-04-05T20:55:23.640Z,36.40
2019-04-05T20:57:52.888Z,37.23
2019-04-05T21:00:22.530Z,37.15
2019-04-05T21:02:51.919Z,34.78
2019-04-05T21:05:25.600Z,34.80
2019-04-05T21:07:52.204Z,36.90
2019-04-05T21:10:21.481Z,35.48
2019-04-05T21:12:50.767Z,36.53
2019-04-05T21:15:20.109Z,36.00
2019-04-05T21:17:49.547Z,39.10
2019-04-05T21:20:19.038Z,39.48
2019-04-05T21:22:49.924Z,40.52
2019-04-05T21:25:20.520Z,38.33
2019-04-05T21:27:51.459Z,38.15
2019-04-05T21:30:20.911Z,39.18
2019-04-05T21:32:50.405Z,43.98
2019-04-05T21:35:19.700Z,42.50
2019-04-05T21:37:49.053Z,40.78
2019-04-05T21:40:21.344Z,43.98
2019-04-05T21:42:51.709Z,42.53
2019-04-05T21:45:21.002Z,43.08
2019-04-05T21:47:50.325Z,44.80
2019-04-05T21:50:19.791Z,45.60
2019-04-05T21:52:49.166Z,45.90
2019-04-05T21:55:18.456Z,47.83
2019-04-05T21:57:47.782Z,47.50
2019-04-05T22:00:28.083Z,47.67
2019-04-05T22:02:59.094Z,47.15
2019-04-05T22:05:28.627Z,48.78
2019-04-05T22:07:59.605Z,50.40
2019-04-05T22:10:29.031Z,45.35
2019-04-05T22:12:59.563Z,50.15
2019-04-05T22:15:28.844Z,47.13
2019-04-05T22:17:58.515Z,46.28
2019-04-05T22:20:27.822Z,40.98
2019-04-05T22:22:57.179Z,39.13
2019-04-05T22:25:26.664Z,39.50
2019-04-05T22:27:56.011Z,40.25
2019-04-05T22:30:25.521Z,38.53
2019-04-05T22:32:54.892Z,40.03
2019-04-05T22:35:24.201Z,42.20
2019-04-05T22:37:53.574Z,42.33
2019-04-05T22:40:22.883Z,43.60
2019-04-05T22:42:52.225Z,43.92
2019-04-05T22:45:21.510Z,46.35
2019-04-05T22:47:50.909Z,45.58
2019-04-05T22:50:20.385Z,48.55
2019-04-05T22:52:49.716Z,48.17
2019-04-05T22:55:19.161Z,49.48
2019-04-05T22:57:48.567Z,49.45
2019-04-05T23:00:18.015Z,49.95
2019-04-05T23:02:49.263Z,50.10
2019-04-05T23:05:18.611Z,51.30
2019-04-05T23:07:47.937Z,52.35
2019-04-05T23:10:17.416Z,55.20
2019-04-05T23:12:46.747Z,56.30
2019-04-05T23:15:16.151Z,51.30
2019-04-05T23:17:46.629Z,53.38
2019-04-05T23:20:16.146Z,53.13
2019-04-05T23:22:45.483Z,56.48
2019-04-05T23:25:21.762Z,59.13
2019-04-05T23:27:45.947Z,56.63
2019-04-05T23:30:17.747Z,58.35
2019-04-05T23:32:47.093Z,61.53
2019-04-05T23:35:16.473Z,59.75
2019-04-05T23:37:46.845Z,63.70
2019-04-05T23:40:16.187Z,58.17
2019-04-05T23:42:45.487Z,60.92
2019-04-05T23:45:15.205Z,60.05
2019-04-05T23:47:45.330Z,63.00
2019-04-05T23:50:14.887Z,66.60
2019-04-05T23:52:44.203Z,65.67
2019-04-05T23:55:13.877Z,66.90
2019-04-05T23:57:43.195Z,73.33
